aviador You're here:

SAEZ Decoded Metar

BUENOS AIRES/EZE in ARGENTINA
Report Time2017-08-18 03:00:00
UTC Time2017-08-18 04:56:46
Flight Rules Old
Wind340° at 07 kt
W.Decomp.*RWY 35: 7.0 kt HW 0.4 kt LCW
RWY 29: 3.8 kt HW 5.9 kt RCW
W.Rank340° ranks 21
Current wind is above 340° avg. (5.7)
Visibility9999 m
Phenomena:N/A
Clouds:N/A
Expected CloudBase > 2,000 ft AGL from Temp-Dew spread
CeilingNone
Temp16°C (ISA +1)
Dew Point11°C (72% RH)
AAT13.8°C
QNH1013 hPa
Density Alt377 ft
Elevation66 ft
Report Wrong Elevation
Raw Report
METAR SAEZ 180300Z 34007KT 280V360 CAVOK 16/11 Q1013=

Extra information for SAEZ:More info

Metar Taf Metar & Taf Last 4 Metars F.Rules Stats Wind Profile Meteogram Temp Stats Airport Information Weather charts Add Link Nearby VenuesMetar ALERT Operation Metar Decoded Social comments